MDT,Max TemperatureF,Mean TemperatureF,Min TemperatureF,Max Dew PointF,MeanDew PointF,Min DewpointF,Max Humidity, Mean Humidity, Min Humidity, Max Sea Level PressureIn, Mean Sea Level PressureIn, Min Sea Level PressureIn, Max VisibilityMiles, Mean VisibilityMiles, Min VisibilityMiles, Max Wind SpeedMPH, Mean Wind SpeedMPH, Max Gust SpeedMPH,PrecipitationIn, CloudCover, Events, WindDirDegrees
2010-10-1,82,63,44,45,40,36,76,47,20,30.41,30.36,30.28,10,10,10,25,6,33,0.00,1,Thunderstorm,329
2010-10-2,78,60,41,45,36,30,70,45,24,30.43,30.38,30.29,10,10,10,22,7,29,0.00,0,,340
2010-10-3,71,56,42,45,41,36,82,57,29,30.42,30.36,30.25,10,10,10,20,6,25,0.00,0,,249
2010-10-4,73,58,42,43,38,34,76,50,25,30.34,30.30,30.20,10,10,10,21,3,25,0.00,1,,243
2010-10-5,73,57,41,43,37,32,76,50,25,30.38,30.32,30.29,10,10,10,18,3,26,0.00,0,,247
2010-10-6,73,58,42,43,39,36,76,52,27,30.49,30.44,30.37,10,10,10,20,4,23,0.00,2,,162
2010-10-7,75,57,39,41,36,30,81,50,25,30.47,30.41,30.29,10,10,10,23,7,29,0.00,1,,272
2010-10-8,69,58,46,41,30,14,76,41,15,30.35,30.28,30.22,10,10,10,21,8,30,0.01,2,Thunderstorm,270
2010-10-9,66,47,28,28,22,14,60,38,22,30.35,30.29,30.20,10,10,10,17,4,24,0.00,0,,292
2010-10-10,64,48,32,28,24,21,65,47,20,30.26,30.21,30.10,10,10,10,17,7,24,0.00,0,,12
2010-10-11,66,52,37,28,25,19,60,37,18,30.23,30.17,30.13,10,10,10,13,3,23,0.00,3,,3
2010-10-12,66,49,32,39,27,16,66,44,26,30.44,30.33,30.24,10,10,10,22,7,28,0.00,3,Thunderstorm,55
2010-10-13,66,50,33,39,34,28,87,59,32,30.57,30.50,30.44,10,10,10,13,5,20,0.00,1,,249
2010-10-14,69,51,33,37,31,27,75,40,23,30.53,30.46,30.37,10,10,10,9,3,16,0.00,0,,256
2010-10-15,71,50,30,28,24,19,69,40,16,30.40,30.34,30.23,10,10,10,10,7,17,0.00,0,,325
2010-10-16,73,50,28,27,21,14,59,35,16,30.34,30.28,30.23,10,10,8,14,5,22,0.00,1,,33
2010-10-17,71,52,32,28,24,18,55,34,17,30.30,30.23,30.14,10,10,10,21,8,26,0.00,1,,296
2010-10-18,62,48,35,41,28,19,62,48,27,30.18,30.16,30.14,10,10,9,13,7,18,0.00,4,Thunderstorm,44
2010-10-19,68,50,32,37,32,27,87,56,28,30.27,30.21,30.16,10,10,10,10,3,17,0.00,2,,15
2010-10-20,69,50,30,36,28,21,80,49,23,30.32,30.25,30.16,10,10,10,12,5,,0.00,0,,354
2010-10-21,60,52,44,46,41,37,87,74,45,30.26,30.14,29.98,10,10,7,18,7,21,0.32,6,Thunderstorm,64
2010-10-22,53,44,35,37,37,34,93,79,54,30.02,29.98,29.91,10,8,1,18,5,22,0.01,7,,230
2010-10-23,55,47,39,37,36,36,87,70,47,30.01,29.98,29.95,10,10,10,24,9,32,0.00,7,,255
2010-10-24,,,,,,,,,,,,,,,,,,,,,,
2010-10-25,53,40,26,43,28,18,82,61,48,29.85,29.68,29.55,10,10,4,33,22,39,0.03,3,,290
2010-10-26,48,34,19,19,16,9,80,51,24,29.88,29.85,29.80,10,10,10,26,10,34,0.00,0,,254
2010-10-27,50,36,21,19,15,9,80,45,20,30.33,30.14,29.96,10,10,10,15,5,21,0.00,2,,318
2010-10-28,55,36,17,18,13,9,68,42,21,30.66,30.57,30.51,10,10,10,9,2,,0.00,0,,320
2010-10-29,64,42,19,28,19,10,68,44,22,30.51,30.43,30.31,10,10,10,13,7,17,0.00,0,,336
2010-10-30,68,46,24,30,24,18,80,47,21,30.30,30.21,30.05,10,10,10,16,6,25,0.00,0,,306
2010-10-31,53,48,48,25,23,21,34,34,33,30.11,30.11,30.11,10,10,10,23,10,36,0.00,0,,195